Time;durP1;ratioP1;P1;durP2;ratioP2;P2;SDS_P1;SDS_P2;PMS_P1;PMS_P2;Temp;Humidity;BMP_temperature;BMP_pressure;BME280_temperature;BME280_humidity;BME280_pressure;Samples;Min_cycle;Max_cycle;Signal;HPM_P1;HPM_P2
2023/05/15 00:00:20;;;;;;;8.80;3.20;;;;;;;16.90;36.56;99817.77;103520;1251;99289;-67
2023/05/15 00:03:07;;;;;;;8.60;3.50;;;;;;;16.87;36.56;99813.73;104027;1255;137653;-67
2023/05/15 00:05:34;;;;;;;5.60;3.10;;;;;;;16.84;36.69;99811.60;103661;1250;97794;-67
2023/05/15 00:08:04;;;;;;;6.30;3.30;;;;;;;16.83;36.68;99808.74;103677;1251;110976;-67
2023/05/15 00:10:31;;;;;;;5.60;3.20;;;;;;;16.80;36.68;99807.17;103736;1255;137577;-67
2023/05/15 00:12:58;;;;;;;6.60;3.50;;;;;;;16.78;36.82;99804.30;103604;1251;97771;-67
2023/05/15 00:15:24;;;;;;;5.50;3.20;;;;;;;16.76;36.76;99800.92;103459;1256;137411;-67
2023/05/15 00:17:53;;;;;;;6.90;3.50;;;;;;;16.74;36.69;99801.20;103471;1250;98103;-67
2023/05/15 00:20:20;;;;;;;9.10;3.60;;;;;;;16.74;36.78;99801.24;103794;1251;110753;-67
2023/05/15 00:22:48;;;;;;;6.20;3.10;;;;;;;16.74;36.77;99795.30;103422;1251;137480;-67
2023/05/15 00:25:15;;;;;;;11.40;3.30;;;;;;;16.73;36.74;99795.83;103569;1251;97852;-67
2023/05/15 00:27:42;;;;;;;4.80;3.00;;;;;;;16.73;36.84;99789.51;103452;1250;137672;-66
2023/05/15 00:30:11;;;;;;;10.30;3.60;;;;;;;16.72;36.76;99783.80;103385;1257;97816;-67
2023/05/15 00:32:38;;;;;;;5.60;3.10;;;;;;;16.71;36.83;99777.89;103498;1255;137783;-67
2023/05/15 00:35:06;;;;;;;8.80;3.50;;;;;;;16.70;36.79;99775.16;103474;1250;108696;-67
2023/05/15 00:37:33;;;;;;;5.00;3.10;;;;;;;16.69;36.82;99775.72;103614;1255;98392;-67
2023/05/15 00:40:03;;;;;;;7.10;3.60;;;;;;;16.68;36.88;99772.64;104368;1255;137444;-68
2023/05/15 00:42:30;;;;;;;6.00;3.30;;;;;;;16.67;36.81;99769.70;103547;1255;97798;-67
2023/05/15 00:45:00;;;;;;;8.00;3.20;;;;;;;16.66;36.81;99763.10;103475;1250;137963;-67
2023/05/15 00:47:28;;;;;;;5.00;2.90;;;;;;;16.66;36.83;99759.08;103489;1251;108123;-67
2023/05/15 00:49:57;;;;;;;7.20;2.90;;;;;;;16.65;36.82;99753.98;103544;1251;97820;-67
2023/05/15 00:52:24;;;;;;;12.60;3.10;;;;;;;16.65;36.79;99752.27;103439;1250;137677;-67
2023/05/15 00:54:52;;;;;;;3.90;2.90;;;;;;;16.64;36.74;99749.67;103563;1251;97762;-67
2023/05/15 00:57:20;;;;;;;5.50;3.00;;;;;;;16.63;36.74;99752.54;103450;1250;137451;-67
2023/05/15 00:59:49;;;;;;;9.80;3.10;;;;;;;16.63;36.80;99763.64;103541;1251;108760;-67
2023/05/15 01:02:19;;;;;;;5.00;2.90;;;;;;;16.61;36.94;99775.66;103653;1250;97785;-67
2023/05/15 01:04:47;;;;;;;6.70;3.20;;;;;;;16.59;37.07;99777.56;103483;1253;138136;-68
2023/05/15 01:07:15;;;;;;;5.70;3.10;;;;;;;16.54;37.11;99771.91;103520;1250;97898;-67
2023/05/15 01:09:43;;;;;;;5.00;3.20;;;;;;;16.51;37.21;99769.82;103344;1253;137397;-67
2023/05/15 01:12:14;;;;;;;7.00;3.30;;;;;;;16.48;37.47;99759.17;103445;1251;107986;-67
2023/05/15 01:14:41;;;;;;;5.70;3.30;;;;;;;16.43;37.53;99749.48;103447;1250;137766;-68
2023/05/15 01:17:09;;;;;;;6.10;3.20;;;;;;;16.39;37.67;99753.09;103531;1250;109630;-67
2023/05/15 01:19:36;;;;;;;9.90;3.00;;;;;;;16.35;37.68;99756.17;103531;1250;97758;-67
2023/05/15 01:22:34;;;;;;;4.50;3.00;;;;;;;16.31;37.67;99761.96;103373;1255;138989;-67
2023/05/15 01:25:32;;;;;;;7.50;3.30;;;;;;;16.27;38.05;99757.30;103467;1250;108037;-68
2023/05/15 01:28:03;;;;;;;5.60;3.30;;;;;;;16.22;38.00;99736.27;103399;1251;137720;-67
2023/05/15 01:30:33;;;;;;;10.00;3.70;;;;;;;16.19;38.07;99722.44;103537;1251;108448;-66
2023/05/15 01:33:06;;;;;;;5.90;3.20;;;;;;;16.16;38.04;99722.08;103417;1250;138018;-66
2023/05/15 01:35:43;;;;;;;5.10;3.20;;;;;;;16.14;38.13;99718.86;103616;1250;110721;-67
2023/05/15 01:38:18;;;;;;;4.90;3.30;;;;;;;16.12;38.30;99716.92;103526;1251;108396;-67
2023/05/15 01:40:48;;;;;;;7.80;3.30;;;;;;;16.09;38.40;99723.40;103474;1250;137761;-67
2023/05/15 01:43:23;;;;;;;5.70;3.00;;;;;;;16.07;38.49;99727.77;103988;1255;106344;-67
2023/05/15 01:45:50;;;;;;;8.40;3.10;;;;;;;16.04;38.43;99720.09;103467;1250;137747;-67
2023/05/15 01:48:19;;;;;;;5.50;3.20;;;;;;;16.02;38.62;99715.62;103538;1255;111149;-68
2023/05/15 01:50:49;;;;;;;6.00;3.20;;;;;;;16.01;38.51;99712.71;103449;1251;137925;-67
2023/05/15 01:53:18;;;;;;;8.70;3.00;;;;;;;15.99;38.52;99704.95;103599;1250;97759;-67
2023/05/15 01:55:46;;;;;;;7.30;2.80;;;;;;;15.97;38.72;99699.98;103541;1253;107872;-67
2023/05/15 01:58:15;;;;;;;6.80;3.20;;;;;;;15.94;38.87;99698.77;103346;1253;138367;-67
2023/05/15 02:00:43;;;;;;;5.30;3.20;;;;;;;15.90;38.97;99695.52;103563;1255;111234;-68
2023/05/15 02:03:11;;;;;;;5.10;3.30;;;;;;;15.86;38.92;99687.69;103489;1250;137870;-66
2023/05/15 02:05:40;;;;;;;7.50;3.50;;;;;;;15.84;39.11;99689.58;104704;1250;95975;-67
2023/05/15 02:08:09;;;;;;;4.70;3.30;;;;;;;15.81;39.16;99694.69;104708;1250;107634;-67
2023/05/15 02:10:37;;;;;;;9.30;3.50;;;;;;;15.79;39.29;99700.43;103481;1250;137637;-67
2023/05/15 02:13:04;;;;;;;7.40;3.10;;;;;;;15.77;39.42;99706.82;103601;1250;111600;-67
2023/05/15 02:15:32;;;;;;;5.70;3.10;;;;;;;15.75;39.51;99704.14;103479;1255;137679;-67
2023/05/15 02:17:59;;;;;;;6.00;3.50;;;;;;;15.72;39.59;99696.09;104757;1251;96600;-68
2023/05/15 02:20:26;;;;;;;8.10;3.40;;;;;;;15.69;39.79;99688.20;103566;1250;108758;-67
2023/05/15 02:22:54;;;;;;;5.30;3.20;;;;;;;15.67;39.68;99688.16;103438;1250;137982;-67
2023/05/15 02:25:29;;;;;;;5.30;3.60;;;;;;;15.65;39.87;99683.77;103504;1250;113240;-68
2023/05/15 02:28:00;;;;;;;8.20;3.20;;;;;;;15.62;39.83;99683.39;103456;1250;137681;-67
2023/05/15 02:30:38;;;;;;;5.40;2.80;;;;;;;15.59;40.09;99680.41;103493;1257;97653;-67
2023/05/15 02:33:19;;;;;;;7.90;3.20;;;;;;;15.57;40.12;99669.82;103509;1253;138208;-67
2023/05/15 02:35:59;;;;;;;9.80;3.90;;;;;;;15.55;40.13;99668.92;103549;1251;97799;-68
2023/05/15 02:38:30;;;;;;;7.10;3.20;;;;;;;15.53;40.24;99664.68;103536;1251;111340;-67
2023/05/15 02:41:00;;;;;;;5.40;2.90;;;;;;;15.51;40.45;99658.49;103417;1250;137683;-67
2023/05/15 02:43:29;;;;;;;7.20;3.20;;;;;;;15.47;40.44;99645.59;103524;1250;97787;-67
2023/05/15 02:45:57;;;;;;;8.10;3.10;;;;;;;15.46;40.50;99637.42;104198;1250;137490;-67
2023/05/15 02:48:25;;;;;;;5.90;3.40;;;;;;;15.45;40.67;99646.45;103877;1250;97799;-67
2023/05/15 02:50:53;;;;;;;5.60;3.30;;;;;;;15.42;40.67;99635.16;103535;1256;137625;-68
2023/05/15 02:53:20;;;;;;;5.30;3.30;;;;;;;15.40;40.75;99625.98;103474;1250;107926;-67
2023/05/15 02:55:48;;;;;;;4.90;3.10;;;;;;;15.40;40.69;99627.59;103473;1253;97824;-67
2023/05/15 02:58:15;;;;;;;6.40;3.40;;;;;;;15.40;40.78;99618.52;103462;1256;137490;-67
2023/05/15 03:00:42;;;;;;;6.60;3.50;;;;;;;15.38;40.91;99617.36;103504;1255;97788;-67
2023/05/15 03:03:09;;;;;;;5.50;3.40;;;;;;;15.38;40.91;99615.50;103447;1251;137580;-67
2023/05/15 03:05:36;;;;;;;8.70;3.30;;;;;;;15.37;40.96;99616.91;103471;1250;108394;-68
2023/05/15 03:08:05;;;;;;;11.10;3.30;;;;;;;15.38;41.03;99616.00;103943;1250;98321;-67
2023/05/15 03:10:32;;;;;;;6.30;3.10;;;;;;;15.37;41.02;99617.10;103441;1251;137741;-67
2023/05/15 03:12:59;;;;;;;5.80;3.20;;;;;;;15.37;41.04;99608.71;104183;1250;96247;-67
2023/05/15 03:15:26;;;;;;;8.70;3.20;;;;;;;15.38;41.02;99598.15;103474;1251;137711;-67
2023/05/15 03:17:53;;;;;;;8.00;3.30;;;;;;;15.37;40.99;99595.39;103731;1253;108205;-67
2023/05/15 03:20:20;;;;;;;8.00;3.10;;;;;;;15.37;41.09;99592.38;104211;1250;97696;-67
2023/05/15 03:22:48;;;;;;;8.60;3.50;;;;;;;15.37;41.10;99588.04;104144;1252;137432;-67
2023/05/15 03:25:14;;;;;;;6.40;3.30;;;;;;;15.36;41.18;99587.04;104163;1250;96789;-67
2023/05/15 03:27:41;;;;;;;7.00;3.30;;;;;;;15.36;41.31;99580.25;104584;1250;138099;-67
2023/05/15 03:30:10;;;;;;;8.20;3.70;;;;;;;15.35;41.32;99576.46;104830;1253;108926;-68
2023/05/15 03:32:37;;;;;;;3.80;3.10;;;;;;;15.33;41.47;99574.14;104131;1250;97791;-67
2023/05/15 03:35:05;;;;;;;8.90;3.30;;;;;;;15.32;41.50;99570.35;104059;1253;108077;-67
2023/05/15 03:37:32;;;;;;;8.90;3.30;;;;;;;15.31;41.29;99573.89;103942;1250;97874;-67
2023/05/15 03:39:59;;;;;;;5.30;3.40;;;;;;;15.31;41.43;99565.12;103439;1255;137415;-66
2023/05/15 03:42:26;;;;;;;8.40;3.50;;;;;;;15.30;41.52;99555.04;103514;1256;107995;-66
2023/05/15 03:44:54;;;;;;;5.60;3.60;;;;;;;15.29;41.57;99548.80;103488;1250;137811;-66
2023/05/15 03:47:22;;;;;;;6.20;3.50;;;;;;;15.30;41.51;99551.20;103611;1253;107005;-67
2023/05/15 03:49:52;;;;;;;5.90;3.30;;;;;;;15.31;41.46;99552.31;103518;1256;97909;-66
2023/05/15 03:52:22;;;;;;;6.70;3.50;;;;;;;15.33;41.40;99544.89;103425;1250;138014;-66
2023/05/15 03:54:49;;;;;;;5.50;3.40;;;;;;;15.35;41.41;99546.13;103985;1250;106846;-66
2023/05/15 03:57:17;;;;;;;7.00;3.00;;;;;;;15.37;41.54;99544.79;103578;1250;137983;-67
2023/05/15 03:59:44;;;;;;;10.40;3.10;;;;;;;15.38;41.49;99547.00;103500;1253;107697;-66
2023/05/15 04:02:11;;;;;;;11.10;3.90;;;;;;;15.39;41.64;99549.36;103449;1252;97793;-66
2023/05/15 04:04:39;;;;;;;5.70;3.70;;;;;;;15.39;41.67;99546.58;103443;1250;137653;-66
2023/05/15 04:07:08;;;;;;;8.30;3.40;;;;;;;15.39;41.60;99545.01;103465;1250;107938;-66
2023/05/15 04:09:36;;;;;;;8.10;3.50;;;;;;;15.39;41.71;99544.45;103450;1250;137825;-66
2023/05/15 04:12:03;;;;;;;6.90;3.30;;;;;;;15.40;41.72;99541.25;103511;1250;110653;-66
2023/05/15 04:14:30;;;;;;;7.80;3.80;;;;;;;15.40;41.80;99535.44;104600;1252;95702;-66
2023/05/15 04:16:57;;;;;;;8.80;3.70;;;;;;;15.40;41.80;99519.34;103484;1250;137262;-66
2023/05/15 04:19:24;;;;;;;8.50;3.00;;;;;;;15.41;41.82;99523.64;103478;1250;108342;-66
2023/05/15 04:21:51;;;;;;;7.80;3.50;;;;;;;15.42;41.99;99519.23;103490;1250;137695;-66
2023/05/15 04:24:18;;;;;;;5.60;3.60;;;;;;;15.43;42.03;99522.48;103476;1250;108657;-66
2023/05/15 04:26:45;;;;;;;6.90;3.30;;;;;;;15.43;42.19;99513.36;103426;1255;137983;-67
2023/05/15 04:29:13;;;;;;;8.10;3.30;;;;;;;15.43;42.14;99503.38;104905;1250;110700;-67
2023/05/15 04:31:40;;;;;;;6.50;3.50;;;;;;;15.42;42.34;99502.22;103763;1250;107922;-67
2023/05/15 04:34:07;;;;;;;8.10;4.10;;;;;;;15.41;42.45;99501.08;103401;1250;137642;-68
2023/05/15 04:36:36;;;;;;;6.50;3.40;;;;;;;15.40;42.48;99505.65;103446;1250;107386;-68
2023/05/15 04:39:03;;;;;;;7.20;3.50;;;;;;;15.39;42.50;99500.34;103356;1250;138486;-68
2023/05/15 04:41:32;;;;;;;6.50;3.40;;;;;;;15.38;42.58;99506.16;103476;1253;110659;-68
2023/05/15 04:43:59;;;;;;;5.30;3.60;;;;;;;15.38;42.66;99503.02;103451;1256;107952;-67
2023/05/15 04:46:27;;;;;;;7.20;3.20;;;;;;;15.37;42.61;99505.00;103615;1250;137756;-67
2023/05/15 04:48:55;;;;;;;7.80;3.30;;;;;;;15.38;42.52;99503.36;103932;1253;107383;-67
2023/05/15 04:51:22;;;;;;;6.40;3.90;;;;;;;15.39;42.45;99499.95;103876;1253;137615;-68
2023/05/15 04:53:49;;;;;;;7.90;3.70;;;;;;;15.40;42.59;99499.52;103528;1253;110923;-67
2023/05/15 04:56:16;;;;;;;6.90;3.50;;;;;;;15.42;42.71;99495.37;103542;1250;107146;-67
2023/05/15 04:58:43;;;;;;;6.20;3.30;;;;;;;15.43;42.73;99492.70;103476;1250;137608;-67
2023/05/15 05:01:10;;;;;;;7.50;3.20;;;;;;;15.43;42.85;99491.11;103560;1253;109405;-67
2023/05/15 05:03:37;;;;;;;9.30;3.80;;;;;;;15.42;42.77;99482.26;103758;1251;137883;-67
2023/05/15 05:06:05;;;;;;;9.10;3.60;;;;;;;15.44;42.89;99482.84;103565;1250;111575;-67
2023/05/15 05:08:32;;;;;;;9.40;3.40;;;;;;;15.45;42.82;99486.14;104038;1253;107731;-68
2023/05/15 05:10:59;;;;;;;7.50;3.50;;;;;;;15.45;42.90;99484.20;103495;1250;138135;-67
2023/05/15 05:13:26;;;;;;;10.10;3.70;;;;;;;15.48;42.94;99485.08;103991;1250;107517;-67
2023/05/15 05:15:53;;;;;;;5.60;3.60;;;;;;;15.48;43.03;99475.40;103687;1256;138073;-67
2023/05/15 05:18:20;;;;;;;5.30;3.30;;;;;;;15.48;43.09;99466.80;104333;1250;112123;-67
2023/05/15 05:20:48;;;;;;;7.90;3.70;;;;;;;15.48;43.10;99458.59;103707;1250;137920;-68
2023/05/15 05:23:16;;;;;;;8.10;3.40;;;;;;;15.50;43.23;99461.97;103613;1250;98238;-67
2023/05/15 05:25:44;;;;;;;8.90;3.70;;;;;;;15.49;43.34;99457.86;104046;1255;107334;-67
2023/05/15 05:28:10;;;;;;;8.10;4.20;;;;;;;15.47;43.54;99456.77;104263;1254;137565;-67
2023/05/15 05:30:37;;;;;;;5.20;3.20;;;;;;;15.45;43.62;99459.14;103576;1250;111091;-68
2023/05/15 05:33:05;;;;;;;8.30;3.30;;;;;;;15.44;43.66;99456.08;103421;1250;137759;-67
2023/05/15 05:35:32;;;;;;;10.40;3.50;;;;;;;15.43;43.85;99455.56;104610;1250;97783;-67
2023/05/15 05:37:59;;;;;;;7.50;3.40;;;;;;;15.43;43.82;99447.15;103586;1250;109644;-67
2023/05/15 05:40:27;;;;;;;9.40;3.50;;;;;;;15.45;44.11;99450.23;103416;1250;137752;-66
2023/05/15 05:42:54;;;;;;;11.70;3.50;;;;;;;15.45;44.07;99448.15;103767;1250;111029;-67
2023/05/15 05:45:20;;;;;;;6.00;3.40;;;;;;;15.44;44.20;99450.23;103644;1253;137873;-67
2023/05/15 05:47:48;;;;;;;7.50;3.70;;;;;;;15.45;44.11;99447.08;103840;1250;97774;-67
2023/05/15 05:50:15;;;;;;;11.60;3.80;;;;;;;15.48;44.11;99451.29;103511;1253;107056;-68
2023/05/15 05:52:42;;;;;;;6.00;3.70;;;;;;;15.48;44.21;99452.25;103450;1256;137894;-67
2023/05/15 05:55:10;;;;;;;6.80;3.50;;;;;;;15.51;44.48;99460.14;103579;1251;111607;-66
2023/05/15 05:57:37;;;;;;;5.90;3.20;;;;;;;15.51;44.76;99459.11;103797;1251;138178;-66
2023/05/15 06:00:07;;;;;;;10.70;4.00;;;;;;;15.52;44.76;99456.21;103503;1253;97974;-67
2023/05/15 06:02:35;;;;;;;11.60;3.60;;;;;;;15.53;45.17;99453.52;103349;1250;367005;-66
2023/05/15 06:05:05;;;;;;;7.00;3.30;;;;;;;15.50;45.10;99460.19;103575;1250;97780;-67
2023/05/15 06:07:32;;;;;;;11.60;3.80;;;;;;;15.48;45.16;99459.30;103941;1250;110721;-67
2023/05/15 06:10:00;;;;;;;6.90;3.60;;;;;;;15.47;45.46;99462.91;103486;1251;137835;-67
2023/05/15 06:12:27;;;;;;;9.50;4.00;;;;;;;15.43;45.69;99466.42;103861;1253;97906;-67
2023/05/15 06:14:54;;;;;;;9.20;3.60;;;;;;;15.39;46.08;99467.92;104169;1250;137667;-67
2023/05/15 06:17:22;;;;;;;7.20;3.60;;;;;;;15.34;46.29;99469.63;103536;1253;97678;-66
2023/05/15 06:19:49;;;;;;;13.70;3.70;;;;;;;15.29;46.51;99474.04;103812;1250;111295;-68
2023/05/15 06:22:16;;;;;;;8.60;4.00;;;;;;;15.21;47.24;99481.52;103421;1253;137805;-66
2023/05/15 06:24:43;;;;;;;9.70;3.60;;;;;;;15.13;47.92;99483.64;103605;1255;97803;-66
2023/05/15 06:27:10;;;;;;;7.40;3.90;;;;;;;15.02;48.71;99479.71;103745;1255;137716;-66
2023/05/15 06:29:37;;;;;;;11.30;4.00;;;;;;;14.89;49.43;99480.56;103589;1250;97817;-66
2023/05/15 06:32:23;;;;;;;;;;;;;;;14.75;49.51;99482.67;103555;1255;112174;-67
2023/05/15 06:34:50;;;;;;;4.90;3.90;;;;;;;14.62;50.60;99479.96;103475;1250;124106;-67
2023/05/15 06:37:17;;;;;;;6.00;4.00;;;;;;;14.48;51.62;99487.41;103581;1250;97803;-66
2023/05/15 06:39:44;;;;;;;10.10;4.30;;;;;;;14.35;52.25;99487.84;103482;1250;137471;-67
2023/05/15 06:42:13;;;;;;;8.30;4.50;;;;;;;14.22;53.36;99484.42;103595;1251;97775;-66
2023/05/15 06:44:40;;;;;;;11.20;4.70;;;;;;;14.06;53.97;99490.77;103487;1250;137624;-67
2023/05/15 06:47:08;;;;;;;9.40;5.00;;;;;;;13.89;55.58;99493.16;103572;1250;107484;-67
2023/05/15 06:49:35;;;;;;;10.40;4.90;;;;;;;13.71;56.42;99487.40;103587;1255;97861;-67
2023/05/15 06:52:02;;;;;;;7.20;5.00;;;;;;;13.54;56.78;99489.21;103708;1251;138328;-67
2023/05/15 06:54:29;;;;;;;11.60;5.40;;;;;;;13.37;58.04;99490.02;103518;1250;97834;-67
2023/05/15 06:56:56;;;;;;;10.20;4.80;;;;;;;13.18;59.30;99483.68;103461;1250;138477;-67
2023/05/15 06:59:26;;;;;;;9.80;5.60;;;;;;;13.03;59.66;99482.27;103540;1250;107463;-67
2023/05/15 07:01:54;;;;;;;9.30;5.20;;;;;;;12.90;60.40;99486.98;103562;1251;97788;-67
2023/05/15 07:04:27;;;;;;;6.90;5.40;;;;;;;12.78;61.07;99479.77;104424;1250;138332;-67
2023/05/15 07:06:55;;;;;;;11.40;5.70;;;;;;;12.67;61.62;99483.64;103581;1255;98321;-67
2023/05/15 07:09:24;;;;;;;11.10;5.50;;;;;;;12.59;62.15;99478.84;103796;1250;138701;-67
2023/05/15 07:11:51;;;;;;;9.00;5.80;;;;;;;12.51;62.40;99481.37;104097;1250;106866;-67
2023/05/15 07:14:21;;;;;;;14.00;6.50;;;;;;;12.46;63.16;99483.24;103558;1255;97687;-67
2023/05/15 07:16:49;;;;;;;10.60;6.70;;;;;;;12.40;63.67;99481.63;103516;1256;138419;-66
2023/05/15 07:19:19;;;;;;;6.90;5.80;;;;;;;12.35;63.92;99479.21;103512;1250;97842;-67
2023/05/15 07:21:50;;;;;;;11.00;6.50;;;;;;;12.32;64.26;99472.05;103445;1250;138448;-67
2023/05/15 07:24:17;;;;;;;8.10;6.50;;;;;;;12.32;64.34;99473.66;103758;1251;107296;-67
2023/05/15 07:26:47;;;;;;;7.80;7.00;;;;;;;12.33;64.83;99470.95;103493;1250;138623;-68
2023/05/15 07:29:25;;;;;;;9.90;6.60;;;;;;;12.35;65.30;99475.75;104819;1250;106297;-68
2023/05/15 07:31:51;;;;;;;9.00;7.40;;;;;;;12.39;65.88;99480.98;103749;1250;97675;-68
2023/05/15 07:34:19;;;;;;;13.20;7.70;;;;;;;12.41;66.07;99477.56;103456;1250;138161;-68
2023/05/15 07:36:46;;;;;;;9.70;7.30;;;;;;;12.44;66.47;99475.33;103412;1250;107785;-67
2023/05/15 07:39:13;;;;;;;12.50;7.60;;;;;;;12.45;66.51;99469.17;103486;1255;138678;-67
2023/05/15 07:41:40;;;;;;;9.70;7.00;;;;;;;12.51;66.85;99468.31;103553;1250;108062;-67
2023/05/15 07:44:08;;;;;;;9.00;6.70;;;;;;;12.53;66.70;99465.06;103593;1250;97797;-66
2023/05/15 07:46:35;;;;;;;11.40;7.10;;;;;;;12.56;67.24;99464.55;103535;1251;139192;-67
2023/05/15 07:49:01;;;;;;;9.60;6.80;;;;;;;12.57;67.10;99464.48;103549;1250;108588;-67
2023/05/15 07:51:29;;;;;;;8.80;6.90;;;;;;;12.59;67.81;99460.19;103402;1250;138368;-67
2023/05/15 07:53:56;;;;;;;11.10;7.20;;;;;;;12.59;67.94;99456.36;103550;1256;108837;-67
2023/05/15 07:56:23;;;;;;;11.40;7.40;;;;;;;12.59;68.38;99453.06;103560;1255;97788;-68
2023/05/15 07:58:50;;;;;;;11.10;7.00;;;;;;;12.59;68.55;99453.95;103481;1256;138331;-67
2023/05/15 08:01:17;;;;;;;12.30;7.40;;;;;;;12.60;68.67;99456.67;103505;1252;107645;-66
2023/05/15 08:03:44;;;;;;;9.40;7.30;;;;;;;12.65;68.13;99444.53;104090;1250;138481;-66
2023/05/15 08:06:12;;;;;;;13.80;7.00;;;;;;;12.73;68.67;99440.77;103536;1250;107974;-66
2023/05/15 08:08:39;;;;;;;12.60;7.00;;;;;;;12.78;68.69;99439.86;103505;1253;98291;-66
2023/05/15 08:11:06;;;;;;;12.20;8.50;;;;;;;12.78;68.69;99438.27;103554;1250;111221;-66
2023/05/15 08:13:33;;;;;;;12.40;7.50;;;;;;;12.78;69.15;99441.61;103525;1250;107455;-66
2023/05/15 08:16:01;;;;;;;10.40;7.10;;;;;;;12.76;68.97;99438.59;103414;1253;138816;-66
2023/05/15 08:18:27;;;;;;;12.70;7.20;;;;;;;12.74;68.70;99433.21;103487;1257;107493;-68
2023/05/15 08:20:55;;;;;;;14.90;7.10;;;;;;;12.76;69.25;99425.13;103414;1256;138708;-66
2023/05/15 08:23:22;;;;;;;14.20;8.00;;;;;;;12.78;68.96;99427.13;103576;1256;111659;-66
2023/05/15 08:25:49;;;;;;;9.80;6.80;;;;;;;12.79;69.39;99422.69;103487;1255;107600;-66
2023/05/15 08:28:19;;;;;;;11.20;7.50;;;;;;;12.81;68.68;99419.44;103446;1256;138354;-66
2023/05/15 08:30:46;;;;;;;13.50;7.40;;;;;;;12.87;69.06;99420.64;103774;1250;109481;-66
2023/05/15 08:33:13;;;;;;;11.30;8.50;;;;;;;12.90;68.72;99420.35;103436;1250;138843;-66
2023/05/15 08:35:41;;;;;;;10.70;7.20;;;;;;;12.94;68.75;99422.76;104894;1250;110426;-66
2023/05/15 08:38:08;;;;;;;12.60;7.00;;;;;;;12.96;68.96;99419.82;103463;1250;107716;-66
2023/05/15 08:40:37;;;;;;;11.40;7.80;;;;;;;12.97;68.46;99410.54;103434;1250;138629;-66
2023/05/15 08:43:13;;;;;;;10.60;7.50;;;;;;;13.00;68.96;99403.34;103958;1250;108085;-66
2023/05/15 08:45:41;;;;;;;9.40;7.60;;;;;;;13.04;68.75;99403.88;103860;1255;138522;-66
2023/05/15 08:48:13;;;;;;;10.90;7.80;;;;;;;13.03;68.98;99400.05;104879;1250;110621;-67
2023/05/15 08:50:42;;;;;;;12.40;7.00;;;;;;;13.02;69.57;99398.74;103490;1250;138626;-67
2023/05/15 08:53:19;;;;;;;10.60;7.00;;;;;;;12.99;69.58;99392.29;104134;1250;98301;-66
2023/05/15 08:55:46;;;;;;;10.80;7.60;;;;;;;12.95;70.16;99387.60;104342;1250;108022;-66
2023/05/15 08:58:15;;;;;;;15.20;8.10;;;;;;;12.91;70.46;99385.38;103402;1251;138533;-66
2023/05/15 09:00:44;;;;;;;10.60;7.70;;;;;;;12.87;70.32;99376.16;103864;1251;110737;-66
2023/05/15 09:03:18;;;;;;;12.20;7.50;;;;;;;12.84;71.04;99376.52;103463;1257;138786;-67
2023/05/15 09:05:47;;;;;;;14.90;8.10;;;;;;;12.80;71.50;99386.69;103562;1250;98421;-66
2023/05/15 09:08:17;;;;;;;12.80;8.30;;;;;;;12.77;71.03;99384.78;103817;1251;108907;-66
2023/05/15 09:10:45;;;;;;;14.50;9.00;;;;;;;12.73;72.12;99393.52;103583;1250;138533;-67
2023/05/15 09:13:14;;;;;;;11.90;8.50;;;;;;;12.70;72.28;99396.66;103698;1250;110836;-67
2023/05/15 09:15:41;;;;;;;16.30;10.00;;;;;;;12.67;72.90;99398.02;103658;1252;138727;-67
2023/05/15 09:18:10;;;;;;;18.90;9.10;;;;;;;12.69;73.16;99404.55;103947;1250;98373;-67
2023/05/15 09:20:38;;;;;;;12.40;9.10;;;;;;;12.68;73.76;99412.11;103954;1255;108056;-67
2023/05/15 09:23:21;;;;;;;11.90;8.70;;;;;;;12.68;74.27;99405.48;104161;1251;96367;-67
2023/05/15 09:25:52;;;;;;;13.30;8.80;;;;;;;12.70;74.39;99397.84;103508;1250;111946;-67
2023/05/15 09:28:29;;;;;;;13.80;8.80;;;;;;;12.71;74.74;99391.86;103682;1250;138587;-66
2023/05/15 09:31:01;;;;;;;16.60;9.60;;;;;;;12.69;75.24;99392.66;103516;1250;97765;-67
2023/05/15 09:33:31;;;;;;;12.00;9.20;;;;;;;12.69;74.51;99391.09;103951;1250;138340;-67
2023/05/15 09:35:58;;;;;;;16.60;9.50;;;;;;;12.73;75.13;99386.17;104009;1250;97912;-67
2023/05/15 09:38:25;;;;;;;12.30;9.60;;;;;;;12.78;74.92;99386.98;104867;1250;111410;-67
2023/05/15 09:41:03;;;;;;;11.80;8.40;;;;;;;12.81;75.15;99379.47;104693;1251;138808;-67
2023/05/15 09:43:33;;;;;;;11.30;8.70;;;;;;;12.82;75.40;99372.77;104284;1254;97010;-67
2023/05/15 09:46:00;;;;;;;15.60;9.50;;;;;;;12.79;76.28;99372.29;103386;1250;138320;-67
2023/05/15 09:48:28;;;;;;;11.90;8.60;;;;;;;12.72;76.88;99370.00;103535;1250;97785;-67
2023/05/15 09:50:56;;;;;;;11.70;9.50;;;;;;;12.65;77.25;99370.60;103671;1250;138411;-68
2023/05/15 09:53:24;;;;;;;14.00;9.30;;;;;;;12.59;77.55;99370.25;103762;1251;107798;-67
2023/05/15 09:55:55;;;;;;;12.70;9.90;;;;;;;12.56;77.75;99364.61;103737;1251;98331;-67
2023/05/15 09:58:24;;;;;;;13.40;9.40;;;;;;;12.57;77.75;99364.41;103679;1256;138558;-67
2023/05/15 10:00:51;;;;;;;13.50;9.40;;;;;;;12.60;77.56;99359.19;103602;1250;97895;-67
2023/05/15 10:03:19;;;;;;;15.60;10.20;;;;;;;12.62;78.09;99355.92;103425;1250;138484;-67
2023/05/15 10:05:47;;;;;;;13.40;9.70;;;;;;;12.61;78.41;99351.44;103590;1255;109046;-67
2023/05/15 10:08:15;;;;;;;11.50;9.60;;;;;;;12.63;77.99;99349.21;103658;1251;97852;-67
2023/05/15 10:10:43;;;;;;;13.20;10.50;;;;;;;12.64;78.35;99344.84;103462;1256;138536;-67
2023/05/15 10:13:11;;;;;;;15.70;11.10;;;;;;;12.61;78.66;99346.58;103570;1250;97752;-67
2023/05/15 10:15:39;;;;;;;16.70;10.30;;;;;;;12.56;78.95;99350.48;103459;1255;138496;-67
2023/05/15 10:18:07;;;;;;;14.30;10.70;;;;;;;12.50;79.61;99353.27;103994;1251;108984;-67
2023/05/15 10:20:35;;;;;;;14.80;10.70;;;;;;;12.42;80.00;99355.46;103570;1251;98321;-67
2023/05/15 10:23:04;;;;;;;13.40;10.70;;;;;;;12.35;80.66;99352.85;103504;1255;107435;-67
2023/05/15 10:25:38;;;;;;;15.20;11.30;;;;;;;12.28;81.62;99350.13;103964;1253;97793;-68
2023/05/15 10:28:08;;;;;;;16.60;11.00;;;;;;;12.23;81.94;99353.89;103607;1250;139762;-66
2023/05/15 10:30:36;;;;;;;13.20;11.80;;;;;;;12.20;81.17;99355.57;103505;1251;108766;-68
2023/05/15 10:33:04;;;;;;;17.30;12.20;;;;;;;12.23;81.18;99359.80;103440;1256;138918;-68
2023/05/15 10:35:31;;;;;;;12.90;11.30;;;;;;;12.23;82.93;99364.52;103518;1250;108431;-67
2023/05/15 10:38:00;;;;;;;10.60;14.90;;;;;;;12.18;83.41;99366.34;103479;1257;97767;-67
2023/05/15 10:40:28;;;;;;;14.10;12.50;;;;;;;12.12;84.05;99354.96;103362;1256;138443;-67
2023/05/15 10:42:57;;;;;;;14.30;12.80;;;;;;;12.08;84.29;99365.95;103395;1251;108039;-68
2023/05/15 10:45:25;;;;;;;15.00;12.90;;;;;;;12.11;84.13;99361.48;103353;1255;138630;-67
2023/05/15 10:47:52;;;;;;;16.40;13.50;;;;;;;12.11;85.26;99362.67;103435;1250;108154;-68
2023/05/15 10:50:20;;;;;;;14.90;12.40;;;;;;;12.09;85.65;99360.67;103375;1255;97886;-68
2023/05/15 10:52:50;;;;;;;14.10;11.20;;;;;;;12.07;86.06;99361.30;103892;1250;138544;-67
2023/05/15 10:55:18;;;;;;;15.20;12.50;;;;;;;12.04;86.05;99357.98;104054;1251;107852;-67
2023/05/15 10:57:47;;;;;;;13.20;11.80;;;;;;;12.00;86.52;99356.26;103629;1253;139050;-67
2023/05/15 11:00:31;;;;;;;13.80;12.30;;;;;;;12.00;86.75;99352.08;103543;1255;108915;-67
2023/05/15 11:02:59;;;;;;;14.90;13.00;;;;;;;12.00;86.37;99351.93;104034;1250;139142;-68
2023/05/15 11:05:29;;;;;;;15.20;13.00;;;;;;;12.00;86.10;99347.57;104362;1251;111933;-67
2023/05/15 11:08:33;;;;;;;14.90;12.60;;;;;;;12.03;85.86;99343.22;103650;1250;109270;-67
2023/05/15 11:11:01;;;;;;;15.10;12.60;;;;;;;12.00;86.78;99343.38;103924;1251;139328;-67
2023/05/15 11:14:14;;;;;;;15.70;14.00;;;;;;;11.96;87.57;99343.77;103963;1250;107661;-68
2023/05/15 11:17:00;;;;;;;16.80;12.90;;;;;;;11.93;87.26;99342.05;103273;1257;138900;-68
2023/05/15 11:19:34;;;;;;;14.60;13.00;;;;;;;11.90;88.73;99352.43;103611;1250;112284;-68
2023/05/15 11:22:03;;;;;;;13.70;12.30;;;;;;;11.89;89.08;99350.81;103361;1256;139556;-68